Time;durP1;ratioP1;P1;durP2;ratioP2;P2;SDS_P1;SDS_P2;PMS_P1;PMS_P2;Temp;Humidity;BMP_temperature;BMP_pressure;BME280_temperature;BME280_humidity;BME280_pressure;Samples;Min_cycle;Max_cycle;Signal;HPM_P1;HPM_P2
2022/08/10 00:00:26;;;;;;;10.95;7.55;;;;;;;24.93;44.12;99901.16;5128257;27;20038;-28
2022/08/10 00:02:56;;;;;;;12.68;8.07;;;;;;;24.91;42.70;99894.38;5129604;27;20503;-30
2022/08/10 00:05:22;;;;;;;12.90;7.95;;;;;;;25.12;42.69;99906.28;5110720;27;20030;-35
2022/08/10 00:07:48;;;;;;;11.25;8.70;;;;;;;24.93;42.65;99894.88;5110735;27;20072;-30
2022/08/10 00:10:15;;;;;;;11.60;8.25;;;;;;;25.06;42.68;99908.38;5129212;27;20478;-31
2022/08/10 00:12:42;;;;;;;17.38;10.35;;;;;;;24.91;42.44;99880.75;5129114;27;20054;-27
2022/08/10 00:15:10;;;;;;;17.20;10.07;;;;;;;25.07;42.40;99898.28;5110709;27;20055;-27
2022/08/10 00:17:35;;;;;;;;;;;;;;;25.14;42.14;99895.06;5129430;27;20023;-32
2022/08/10 00:20:01;;;;;;;14.27;8.98;;;;;;;24.81;43.08;99888.13;5110420;27;19918;-29
2022/08/10 00:22:26;;;;;;;15.57;8.80;;;;;;;24.76;42.94;99885.53;5110416;27;20035;-28
2022/08/10 00:24:56;;;;;;;13.00;8.75;;;;;;;24.50;43.12;99862.88;5128850;27;20031;-32
2022/08/10 00:27:22;;;;;;;12.93;8.55;;;;;;;24.40;43.38;99862.03;5110029;27;20050;-33
2022/08/10 00:29:47;;;;;;;16.13;9.10;;;;;;;24.36;44.18;99888.31;5129055;27;20027;-28
2022/08/10 00:32:13;;;;;;;12.50;8.52;;;;;;;24.39;43.77;99876.75;5128946;27;20027;-29
2022/08/10 00:34:39;;;;;;;12.82;8.95;;;;;;;24.34;43.98;99878.84;5128936;27;20506;-29
2022/08/10 00:37:04;;;;;;;13.30;9.20;;;;;;;24.08;44.58;99881.47;5128697;27;20422;-32
2022/08/10 00:39:29;;;;;;;11.43;8.02;;;;;;;24.05;44.43;99866.56;5128426;27;20083;-29
2022/08/10 00:41:55;;;;;;;12.70;8.65;;;;;;;24.14;44.62;99881.00;5109951;27;20112;-33
2022/08/10 00:44:21;;;;;;;12.25;7.78;;;;;;;24.26;44.24;99869.53;5110179;27;20023;-27
2022/08/10 00:46:46;;;;;;;13.90;8.20;;;;;;;24.09;44.44;99866.72;5128516;27;20074;-29
2022/08/10 00:49:13;;;;;;;15.60;8.95;;;;;;;24.07;44.81;99880.66;5128652;27;20035;-28
2022/08/10 00:51:39;;;;;;;13.00;8.32;;;;;;;24.03;44.42;99861.41;5109537;27;20475;-28
2022/08/10 00:54:05;;;;;;;11.88;8.63;;;;;;;24.18;44.09;99870.28;5109619;27;20026;-27
2022/08/10 00:56:31;;;;;;;13.40;8.90;;;;;;;24.06;44.63;99868.94;5128366;27;20027;-29
2022/08/10 00:58:57;;;;;;;13.73;8.07;;;;;;;24.12;44.84;99866.91;5109733;27;20019;-28
2022/08/10 01:01:23;;;;;;;13.68;8.13;;;;;;;24.15;44.82;99857.28;5109475;27;20095;-29
2022/08/10 01:03:48;;;;;;;11.02;7.65;;;;;;;24.03;44.35;99861.41;5128128;27;20122;-28
2022/08/10 01:06:44;;;;;;;10.18;7.38;;;;;;;23.75;45.10;99851.81;5128219;27;20054;-27
2022/08/10 01:09:33;;;;;;;11.07;7.60;;;;;;;24.06;44.68;99873.59;5128197;27;20046;-32
2022/08/10 01:12:12;;;;;;;12.25;6.95;;;;;;;23.97;44.76;99865.41;5109329;27;20498;-29
2022/08/10 01:14:58;;;;;;;11.75;6.95;;;;;;;23.81;45.04;99856.03;5109712;27;20031;-29
2022/08/10 01:17:44;;;;;;;9.83;7.60;;;;;;;23.72;46.25;99855.97;5109421;27;20029;-27
2022/08/10 01:20:30;;;;;;;11.68;6.53;;;;;;;23.96;45.09;99869.22;5109658;27;20023;-31
2022/08/10 01:23:53;;;;;;;13.02;7.30;;;;;;;24.11;45.35;99872.66;5127133;27;20051;-29
2022/08/10 01:26:37;;;;;;;12.82;8.43;;;;;;;23.95;45.17;99867.63;5007609;28;20037;-28
2022/08/10 01:29:31;;;;;;;11.75;7.43;;;;;;;23.92;44.79;99873.69;5023982;28;20038;-28
2022/08/10 01:32:03;;;;;;;14.15;7.40;;;;;;;23.92;44.81;99856.56;5117719;27;20031;-29
2022/08/10 01:34:37;;;;;;;10.75;7.40;;;;;;;23.93;44.86;99856.25;5109236;28;20042;-29
2022/08/10 01:37:10;;;;;;;10.95;7.30;;;;;;;23.98;44.52;99874.38;5127907;27;20031;-28
2022/08/10 01:39:40;;;;;;;11.93;6.72;;;;;;;23.81;45.62;99856.81;5108951;27;20482;-28
2022/08/10 01:42:12;;;;;;;9.82;6.60;;;;;;;23.88;44.95;99869.19;5109029;28;20023;-32
2022/08/10 01:44:55;;;;;;;9.13;6.60;;;;;;;23.69;45.57;99861.22;5109231;28;20035;-28
2022/08/10 01:50:21;;;;;;;;;;;;;;;23.80;45.31;99892.53;5128689;27;20026;-29
2022/08/10 01:52:50;;;;;;;11.48;6.32;;;;;;;23.97;43.98;99881.75;5109208;28;20002;-30
2022/08/10 01:55:16;;;;;;;11.77;6.45;;;;;;;24.10;44.77;99899.09;5109259;28;20031;-36
2022/08/10 01:57:45;;;;;;;10.70;6.85;;;;;;;23.96;43.67;99891.00;5127666;28;20513;-32
2022/08/10 02:00:11;;;;;;;10.82;6.60;;;;;;;23.77;43.82;99871.38;5109282;28;20073;-31
2022/08/10 02:02:39;;;;;;;12.23;6.85;;;;;;;23.60;44.22;99877.47;5109114;28;20117;-32
2022/08/10 02:05:06;;;;;;;8.70;6.50;;;;;;;23.60;44.21;99893.81;5108797;28;20031;-29
2022/08/10 02:07:33;;;;;;;9.17;6.00;;;;;;;23.69;44.08;99902.06;5109076;28;20027;-29
2022/08/10 02:10:05;;;;;;;8.75;7.15;;;;;;;23.75;43.83;99892.66;5108876;28;20091;-28
2022/08/10 02:12:34;;;;;;;13.23;7.93;;;;;;;23.77;44.10;99898.63;5108737;28;20594;-28
2022/08/10 02:15:04;;;;;;;10.82;6.72;;;;;;;23.57;44.57;99887.06;5108852;28;20100;-29
2022/08/10 02:17:40;;;;;;;10.60;6.97;;;;;;;23.54;44.99;99879.53;5108471;28;20038;-31
2022/08/10 02:20:16;;;;;;;8.65;6.18;;;;;;;23.53;44.45;99877.91;5127743;27;20440;-29
2022/08/10 02:22:44;;;;;;;8.90;6.20;;;;;;;23.59;44.62;99900.38;5108881;28;20743;-28
2022/08/10 02:25:12;;;;;;;10.30;6.38;;;;;;;23.41;45.18;99885.84;5112528;27;20055;-28
2022/08/10 02:27:39;;;;;;;9.18;6.10;;;;;;;23.46;44.92;99904.78;5112418;27;20037;-29
2022/08/10 02:30:06;;;;;;;10.65;5.70;;;;;;;23.45;45.11;99895.78;5112240;27;20038;-28
2022/08/10 02:32:33;;;;;;;8.80;6.15;;;;;;;23.38;44.47;99872.88;5112676;27;20084;-29
2022/08/10 02:35:01;;;;;;;11.40;6.28;;;;;;;23.35;44.80;99887.06;5112500;27;20141;-30
2022/08/10 02:37:29;;;;;;;10.75;6.25;;;;;;;23.28;46.25;99903.84;5112504;27;20039;-28
2022/08/10 02:39:55;;;;;;;12.30;6.72;;;;;;;23.12;47.03;99889.78;5112578;27;20023;-29
2022/08/10 02:42:30;;;;;;;11.07;6.63;;;;;;;23.49;46.67;99909.59;5112547;27;20625;-28
2022/08/10 02:45:14;;;;;;;12.32;6.88;;;;;;;22.75;49.45;99918.81;5112375;27;20505;-30
2022/08/10 02:47:57;;;;;;;9.10;6.13;;;;;;;22.38;50.74;99920.66;5112168;27;20055;-28
2022/08/10 02:50:27;;;;;;;11.63;6.88;;;;;;;22.30;51.11;99926.78;5112221;27;20080;-28
2022/08/10 02:53:04;;;;;;;9.32;6.50;;;;;;;22.72;48.81;99919.44;5111972;27;20031;-31
2022/08/10 02:55:41;;;;;;;10.83;7.00;;;;;;;22.78;48.75;99917.41;5130357;27;20421;-28
2022/08/10 02:58:11;;;;;;;9.85;6.45;;;;;;;22.74;48.72;99922.66;5112414;27;20268;-28
2022/08/10 03:00:45;;;;;;;13.00;6.97;;;;;;;22.74;49.33;99922.66;5112140;27;20027;-30
2022/08/10 03:03:17;;;;;;;10.32;6.88;;;;;;;22.99;48.04;99923.25;5111935;27;20020;-31
2022/08/10 03:05:46;;;;;;;10.18;7.13;;;;;;;22.46;49.77;99927.31;5111841;27;20027;-35
2022/08/10 03:08:16;;;;;;;13.38;7.50;;;;;;;22.56;49.78;99929.03;5130529;27;20394;-28
2022/08/10 03:10:43;;;;;;;11.82;6.60;;;;;;;22.92;48.80;99931.00;5130170;27;20053;-29
2022/08/10 03:13:11;;;;;;;12.90;7.35;;;;;;;22.22;51.15;99927.44;5111749;27;20034;-31
2022/08/10 03:15:38;;;;;;;14.70;7.10;;;;;;;22.42;50.59;99932.53;5111509;27;20104;-28
2022/08/10 03:18:05;;;;;;;13.77;7.05;;;;;;;22.02;51.35;99939.47;5111503;27;20031;-28
2022/08/10 03:20:35;;;;;;;20.42;7.68;;;;;;;21.94;51.23;99930.09;5130858;27;20035;-28
2022/08/10 03:23:02;;;;;;;21.13;7.43;;;;;;;22.07;51.12;99928.53;5094683;27;20019;-28
2022/08/10 03:25:28;;;;;;;14.43;7.07;;;;;;;22.18;50.42;99921.81;5111554;27;20046;-29
2022/08/10 03:27:54;;;;;;;13.40;7.20;;;;;;;22.01;51.16;99941.41;5111653;27;20051;-29
2022/08/10 03:30:20;;;;;;;15.45;7.35;;;;;;;21.50;53.31;99931.38;5111370;27;20023;-28
2022/08/10 03:32:47;;;;;;;16.30;8.13;;;;;;;21.54;53.24;99932.41;5130273;27;20092;-29
2022/08/10 03:35:13;;;;;;;19.95;8.93;;;;;;;21.78;51.88;99939.59;5111413;27;20049;-28
2022/08/10 03:37:39;;;;;;;15.90;8.70;;;;;;;21.76;51.68;99937.22;5111325;27;20071;-31
2022/08/10 03:40:06;;;;;;;17.52;8.13;;;;;;;21.64;52.21;99936.88;5130038;27;20417;-28
2022/08/10 03:42:35;;;;;;;10.57;7.73;;;;;;;21.94;51.79;99924.66;5130099;27;20031;-31
2022/08/10 03:45:03;;;;;;;13.10;8.00;;;;;;;21.27;53.17;99917.56;5129652;27;20257;-29
2022/08/10 03:47:30;;;;;;;13.32;9.35;;;;;;;21.07;54.13;99939.56;5111082;27;20111;-30
2022/08/10 03:49:56;;;;;;;13.82;8.10;;;;;;;20.54;55.81;99924.19;5111275;27;20031;-29
2022/08/10 03:52:23;;;;;;;12.30;7.80;;;;;;;20.41;56.46;99954.66;5129541;27;20563;-35
2022/08/10 03:54:50;;;;;;;11.00;7.00;;;;;;;20.38;55.97;99953.34;5129871;27;20027;-28
2022/08/10 03:57:16;;;;;;;10.32;7.82;;;;;;;21.00;53.82;99949.94;5110991;27;20034;-28
2022/08/10 03:59:42;;;;;;;16.83;7.30;;;;;;;21.14;53.32;99958.97;5110695;27;20027;-30
2022/08/10 04:02:08;;;;;;;14.57;8.40;;;;;;;21.11;53.79;99956.84;5129587;27;20511;-29
2022/08/10 04:04:34;;;;;;;15.60;8.77;;;;;;;21.65;52.41;99963.69;5110960;27;20031;-30
2022/08/10 04:07:01;;;;;;;17.33;8.57;;;;;;;21.84;52.84;99960.97;5111071;27;20042;-32
2022/08/10 04:09:29;;;;;;;18.85;8.57;;;;;;;21.86;52.44;99949.78;5110619;27;20015;-28
2022/08/10 04:11:55;;;;;;;12.82;7.88;;;;;;;21.93;51.88;99947.50;5110783;27;20411;-29
2022/08/10 04:14:20;;;;;;;13.82;7.57;;;;;;;21.84;52.63;99965.56;5110421;27;20034;-28
2022/08/10 04:16:46;;;;;;;14.68;7.43;;;;;;;21.73;53.98;99964.13;5129534;27;20199;-30
2022/08/10 04:19:13;;;;;;;23.52;8.25;;;;;;;22.16;52.77;99978.34;5129642;27;20034;-33
2022/08/10 04:21:42;;;;;;;29.38;11.43;;;;;;;22.26;51.12;99956.44;5110553;27;20035;-33
2022/08/10 04:24:14;;;;;;;23.90;11.70;;;;;;;22.38;51.93;99975.00;5110405;27;20027;-30
2022/08/10 04:26:41;;;;;;;27.85;13.65;;;;;;;22.38;51.71;99966.03;5110319;27;20032;-34
2022/08/10 04:29:07;;;;;;;29.25;13.88;;;;;;;22.57;52.57;99974.09;5110455;27;20103;-30
2022/08/10 04:31:34;;;;;;;25.90;13.60;;;;;;;22.93;50.52;99967.97;5110138;27;20748;-29
2022/08/10 04:34:01;;;;;;;26.35;12.88;;;;;;;23.02;49.48;99974.31;5110370;27;20403;-29
2022/08/10 04:36:28;;;;;;;23.25;12.82;;;;;;;22.97;50.11;99963.53;5128707;27;20392;-28
2022/08/10 04:38:54;;;;;;;31.20;15.05;;;;;;;23.39;49.62;99975.16;5110251;27;20482;-30
2022/08/10 04:41:20;;;;;;;31.55;14.65;;;;;;;23.39;49.72;99964.25;5128490;27;20490;-30
2022/08/10 04:43:46;;;;;;;22.70;13.48;;;;;;;23.27;51.11;99983.84;5128782;27;20033;-28
2022/08/10 04:46:11;;;;;;;27.40;13.10;;;;;;;23.50;50.08;99965.66;5127813;27;20047;-28
2022/08/10 04:48:36;;;;;;;31.90;13.90;;;;;;;23.46;49.79;99965.44;5128710;27;20512;-28
2022/08/10 04:51:02;;;;;;;20.70;12.48;;;;;;;23.42;50.49;99966.38;5128515;27;20621;-29
2022/08/10 04:53:28;;;;;;;32.08;14.70;;;;;;;23.65;49.38;99970.72;5109663;27;20027;-31
2022/08/10 04:55:53;;;;;;;28.98;15.60;;;;;;;23.66;51.00;99980.50;5128398;27;20370;-29
2022/08/10 04:58:19;;;;;;;48.42;18.02;;;;;;;23.79;51.76;99973.41;5128350;27;20058;-30
2022/08/10 05:00:44;;;;;;;30.00;14.68;;;;;;;23.99;50.46;99974.84;5128417;27;20474;-31
2022/08/10 05:03:10;;;;;;;24.30;11.80;;;;;;;24.18;48.17;99976.56;5109815;27;20524;-29
2022/08/10 05:05:35;;;;;;;16.25;9.80;;;;;;;24.43;46.91;99964.16;5128188;27;20046;-29
2022/08/10 05:08:01;;;;;;;17.67;9.25;;;;;;;24.53;48.36;99974.81;5128121;27;20027;-30
2022/08/10 05:10:26;;;;;;;16.73;8.98;;;;;;;24.77;47.19;99990.78;5128020;27;20019;-31
2022/08/10 05:12:51;;;;;;;11.48;7.70;;;;;;;24.79;47.14;99985.81;5128213;27;20375;-29
2022/08/10 05:15:18;;;;;;;10.18;6.80;;;;;;;24.94;46.40;99972.88;5128207;27;20023;-28
2022/08/10 05:17:44;;;;;;;12.23;6.80;;;;;;;25.28;45.50;99985.00;5127915;27;20501;-32
2022/08/10 05:20:10;;;;;;;12.15;6.20;;;;;;;25.51;44.91;99991.13;5109434;27;20096;-31
2022/08/10 05:22:39;;;;;;;13.70;8.65;;;;;;;25.56;46.09;99986.31;5128093;27;20031;-31
2022/08/10 05:25:06;;;;;;;16.45;8.98;;;;;;;25.87;46.15;100004.44;5109013;27;20035;-35
2022/08/10 05:27:32;;;;;;;9.02;5.60;;;;;;;26.24;44.15;100002.16;5109556;27;20072;-30
2022/08/10 05:29:58;;;;;;;12.10;5.45;;;;;;;26.36;41.82;100009.69;5109581;27;20037;-29
2022/08/10 05:32:23;;;;;;;9.55;5.30;;;;;;;26.46;41.23;99998.41;5127903;27;20854;-28
2022/08/10 05:34:49;;;;;;;11.00;8.10;;;;;;;26.53;42.94;99986.94;5127794;27;20079;-29
2022/08/10 05:37:15;;;;;;;9.55;5.13;;;;;;;26.57;40.25;100005.13;5127628;27;20859;-30
2022/08/10 05:39:42;;;;;;;7.22;4.75;;;;;;;26.76;40.19;100003.91;5108778;27;20447;-31
2022/08/10 05:42:07;;;;;;;8.83;5.17;;;;;;;26.94;40.41;99982.75;5109239;28;20042;-31
2022/08/10 05:44:33;;;;;;;12.05;5.40;;;;;;;26.90;38.83;99984.53;5124798;27;20023;-30
2022/08/10 05:46:59;;;;;;;7.28;4.85;;;;;;;26.93;40.19;99981.97;5099332;28;20047;-30
2022/08/10 05:49:24;;;;;;;10.38;5.25;;;;;;;27.07;39.60;99984.44;5116686;28;20028;-33
2022/08/10 05:51:51;;;;;;;7.53;4.50;;;;;;;27.10;38.64;100000.19;5110940;27;20106;-30
2022/08/10 05:54:17;;;;;;;8.10;5.00;;;;;;;27.25;39.08;100010.59;5109242;28;20031;-34
2022/08/10 05:56:45;;;;;;;11.50;5.03;;;;;;;27.45;38.55;100014.47;5106530;28;20707;-29
2022/08/10 05:59:12;;;;;;;9.60;5.00;;;;;;;27.45;39.42;100000.78;5110538;27;20183;-32
2022/08/10 06:01:42;;;;;;;8.77;4.72;;;;;;;27.55;38.80;100016.00;5113079;27;20043;-30
2022/08/10 06:04:09;;;;;;;8.52;5.15;;;;;;;27.82;38.98;100013.84;5131279;27;20027;-31
2022/08/10 06:08:48;;;;;;;10.17;5.97;;;;;;;27.68;38.03;100007.84;4838503;27;8402524;-30
2022/08/10 06:11:15;;;;;;;11.27;5.68;;;;;;;27.59;37.65;99997.78;5104606;28;20105;-30
2022/08/10 06:16:29;;;;;;;9.00;5.10;;;;;;;27.79;38.00;100020.03;5104588;28;20414;-30
2022/08/10 06:18:55;;;;;;;10.23;4.95;;;;;;;27.82;37.73;100005.63;5120603;28;20020;-29
2022/08/10 06:21:21;;;;;;;8.90;4.90;;;;;;;27.79;38.75;100015.34;5103227;28;20031;-32
2022/08/10 06:23:48;;;;;;;7.15;4.93;;;;;;;27.92;38.00;100013.47;5103085;28;20039;-28
2022/08/10 06:26:13;;;;;;;10.20;5.35;;;;;;;28.04;37.16;99997.06;5103383;28;20053;-34
2022/08/10 06:28:47;;;;;;;7.78;4.88;;;;;;;28.24;37.59;100009.13;5103057;28;20032;-29
2022/08/10 06:31:16;;;;;;;8.15;4.75;;;;;;;28.47;38.04;100000.47;5104675;28;20456;-29
2022/08/10 06:33:44;;;;;;;7.10;4.53;;;;;;;28.54;37.24;100010.91;5102806;28;20038;-31
2022/08/10 06:36:11;;;;;;;10.25;4.85;;;;;;;28.67;38.57;100008.97;5103059;28;20419;-29
2022/08/10 06:38:38;;;;;;;7.15;5.05;;;;;;;28.85;37.68;100011.16;5119373;28;20036;-33
2022/08/10 06:41:18;;;;;;;7.83;4.70;;;;;;;28.95;36.12;100014.56;5102980;28;20020;-28
2022/08/10 06:43:49;;;;;;;10.35;5.28;;;;;;;28.87;36.99;100001.78;5102725;28;20036;-32
2022/08/10 06:46:18;;;;;;;9.50;5.22;;;;;;;29.08;38.03;99994.22;5104027;28;20213;-29
2022/08/10 06:48:54;;;;;;;7.97;4.47;;;;;;;29.12;38.17;100008.88;5102563;28;20080;-33
2022/08/10 06:51:25;;;;;;;8.73;4.38;;;;;;;28.93;38.32;99997.66;5102655;28;20122;-29
2022/08/10 06:53:53;;;;;;;7.05;4.80;;;;;;;29.15;37.05;100005.44;5102568;28;20513;-28
2022/08/10 06:56:21;;;;;;;8.55;5.00;;;;;;;29.21;37.67;100006.78;5103686;28;20440;-29
2022/08/10 06:58:50;;;;;;;10.52;4.80;;;;;;;29.34;37.21;100001.28;5102162;28;20506;-30
2022/08/10 07:01:19;;;;;;;8.75;5.00;;;;;;;29.23;37.63;99993.50;5103710;28;20088;-34
2022/08/10 07:03:58;;;;;;;7.93;5.20;;;;;;;29.47;37.83;100005.59;5102397;28;20448;-33
2022/08/10 07:06:23;;;;;;;7.72;4.63;;;;;;;29.72;37.64;100003.59;5116098;28;20039;-30
2022/08/10 07:08:50;;;;;;;7.75;4.50;;;;;;;29.94;38.21;99991.25;5087837;28;20448;-30
2022/08/10 07:11:18;;;;;;;7.03;4.95;;;;;;;30.02;38.42;100001.28;5085253;28;20525;-28
2022/08/10 07:13:45;;;;;;;;;;;;;;;29.92;37.73;100003.75;5085707;28;20036;-29
2022/08/10 07:16:12;;;;;;;7.38;4.80;;;;;;;29.65;39.06;99987.69;5103461;28;19911;-28
2022/08/10 07:18:40;;;;;;;10.43;4.90;;;;;;;29.94;38.95;99999.50;5077710;28;20058;-34
2022/08/10 07:21:07;;;;;;;8.18;4.65;;;;;;;29.80;37.55;99994.41;5089796;28;20282;-29
2022/08/10 07:23:33;;;;;;;6.70;4.80;;;;;;;29.96;37.40;99996.41;5071377;28;20388;-33
2022/08/10 07:26:01;;;;;;;8.23;5.03;;;;;;;30.07;38.60;100002.19;5071136;28;20024;-29
2022/08/10 07:28:29;;;;;;;6.95;4.63;;;;;;;29.77;38.50;99994.28;5089210;28;20028;-29
2022/08/10 07:30:56;;;;;;;6.15;4.20;;;;;;;30.02;37.52;100000.50;5071408;28;20111;-28
2022/08/10 07:33:23;;;;;;;6.73;4.73;;;;;;;30.10;36.77;99995.97;5089760;28;20028;-31
2022/08/10 07:35:49;;;;;;;6.13;5.00;;;;;;;29.97;37.85;99987.78;5071087;28;20269;-28
2022/08/10 07:38:18;;;;;;;8.18;4.85;;;;;;;30.34;36.84;100004.13;5071181;28;20119;-29
2022/08/10 07:40:47;;;;;;;6.97;4.40;;;;;;;30.97;36.11;100017.06;5089096;28;20032;-31
2022/08/10 07:43:14;;;;;;;9.52;4.63;;;;;;;30.88;38.19;100012.91;5071074;28;20036;-28
2022/08/10 07:45:40;;;;;;;5.90;4.18;;;;;;;30.61;36.33;100009.91;5071097;28;20502;-30
2022/08/10 07:48:15;;;;;;;10.23;4.88;;;;;;;30.66;36.79;100006.06;5089333;28;20024;-28
2022/08/10 07:50:43;;;;;;;6.43;4.63;;;;;;;30.51;35.76;99993.91;5070698;28;20483;-27
2022/08/10 07:53:25;;;;;;;10.75;4.75;;;;;;;30.49;38.40;99993.47;5070925;28;20055;-33
2022/08/10 07:55:53;;;;;;;6.75;4.30;;;;;;;30.97;38.40;99999.75;5071018;28;20040;-28
2022/08/10 07:58:21;;;;;;;6.20;4.32;;;;;;;30.92;37.00;100002.78;5089021;28;20028;-32
2022/08/10 08:00:51;;;;;;;6.88;4.80;;;;;;;31.06;37.43;100000.34;5070883;28;20028;-31
2022/08/10 08:03:23;;;;;;;6.75;4.25;;;;;;;31.19;35.74;100007.31;5070918;28;20097;-28
2022/08/10 08:05:49;;;;;;;8.43;4.28;;;;;;;31.21;36.41;100005.00;5088957;28;20529;-32
2022/08/10 08:08:17;;;;;;;8.50;4.80;;;;;;;31.80;34.59;99986.56;5070582;28;20036;-29
2022/08/10 08:10:44;;;;;;;6.85;4.45;;;;;;;31.95;34.28;99987.63;5070727;28;20422;-29
2022/08/10 08:13:10;;;;;;;;;;;;;;;32.37;33.51;99992.34;5071024;28;20035;-28
2022/08/10 08:15:37;;;;;;;5.75;4.55;;;;;;;32.13;33.48;99992.72;5070521;28;19916;-35
2022/08/10 08:18:04;;;;;;;6.43;4.03;;;;;;;32.26;33.12;99983.06;5070578;28;20506;-28
2022/08/10 08:20:30;;;;;;;;;;;;;;;32.13;34.25;99987.97;5088763;28;20024;-28
2022/08/10 08:22:57;;;;;;;7.72;4.90;;;;;;;32.14;34.02;99973.03;5070108;28;20650;-28
2022/08/10 08:25:22;;;;;;;;;;;;;;;32.39;33.30;99981.75;5070823;28;20040;-35
2022/08/10 08:27:52;;;;;;;9.50;4.70;;;;;;;32.77;33.42;99974.47;5088362;28;19973;-29
2022/08/10 08:30:20;;;;;;;8.23;4.30;;;;;;;32.30;33.09;99963.81;5069132;28;20475;-34
2022/08/10 08:32:47;;;;;;;6.43;4.28;;;;;;;32.06;34.03;99967.75;5088066;28;20027;-31
2022/08/10 08:35:16;;;;;;;7.85;4.65;;;;;;;32.17;34.19;99971.50;5088184;28;20518;-28
2022/08/10 08:37:48;;;;;;;5.57;4.18;;;;;;;31.86;33.25;99951.22;5069903;28;20028;-30
2022/08/10 08:40:21;;;;;;;8.43;4.32;;;;;;;31.73;33.78;99953.34;5088671;28;20024;-28
2022/08/10 08:43:17;;;;;;;6.30;4.68;;;;;;;31.46;33.52;99966.19;5070089;28;20024;-29
2022/08/10 08:46:13;;;;;;;5.87;4.77;;;;;;;31.46;34.13;99966.19;5070038;28;20024;-35
2022/08/10 08:48:56;;;;;;;6.95;4.50;;;;;;;31.54;34.31;99951.41;5069681;28;20305;-33
2022/08/10 08:51:27;;;;;;;7.28;4.43;;;;;;;31.55;34.12;99960.47;5069769;28;20024;-28
2022/08/10 08:54:34;;;;;;;6.63;4.22;;;;;;;31.62;33.33;99964.16;5069904;28;20089;-30
2022/08/10 08:57:16;;;;;;;7.53;4.55;;;;;;;32.14;33.73;99956.50;4969622;28;20115;-31
2022/08/10 08:59:41;;;;;;;7.82;4.35;;;;;;;32.11;32.64;99965.47;5078410;28;20056;-28
2022/08/10 09:02:36;;;;;;;9.40;4.28;;;;;;;32.29;32.59;99953.97;5069445;28;20020;-29
2022/08/10 09:05:20;;;;;;;6.82;4.70;;;;;;;32.23;33.57;99931.41;5087649;28;20037;-29
2022/08/10 09:08:10;;;;;;;6.57;4.50;;;;;;;32.43;32.06;99951.44;5069459;28;20032;-30
2022/08/10 09:10:52;;;;;;;6.90;4.47;;;;;;;32.71;31.75;99937.28;5087165;28;20052;-30
2022/08/10 09:13:26;;;;;;;6.65;4.78;;;;;;;32.92;31.82;99947.88;5069550;28;20093;-28
2022/08/10 09:16:23;;;;;;;6.88;4.65;;;;;;;32.48;32.52;99939.28;5069555;28;20085;-29
2022/08/10 09:19:16;;;;;;;7.65;4.25;;;;;;;32.67;32.13;99943.94;5087608;28;20020;-29
2022/08/10 09:21:53;;;;;;;10.95;4.50;;;;;;;32.70;32.57;99927.44;5069417;28;20028;-28
2022/08/10 09:24:29;;;;;;;;;;;;;;;32.94;31.23;99939.22;5069745;28;20024;-28
2022/08/10 09:26:59;;;;;;;5.45;4.05;;;;;;;32.79;31.91;99925.19;5087444;28;19948;-28
2022/08/10 09:29:30;;;;;;;6.07;4.38;;;;;;;32.72;31.99;99927.84;5069197;28;20485;-34
2022/08/10 09:32:25;;;;;;;7.53;4.30;;;;;;;33.05;31.85;99937.38;5088050;28;20035;-33
2022/08/10 09:35:28;;;;;;;7.32;4.57;;;;;;;32.95;31.97;99926.97;5087899;28;20407;-31
2022/08/10 09:38:27;;;;;;;7.70;4.20;;;;;;;33.02;32.17;99933.41;4985921;28;20034;-29
2022/08/10 09:41:14;;;;;;;10.93;4.80;;;;;;;33.35;31.72;99928.31;5065156;28;20131;-30
2022/08/10 09:43:49;;;;;;;;;;;;;;;33.61;30.15;99942.06;5081502;28;20032;-31
2022/08/10 09:46:21;;;;;;;7.25;4.40;;;;;;;33.62;30.37;99935.34;5087394;28;19908;-28
2022/08/10 09:49:02;;;;;;;5.47;4.10;;;;;;;33.86;30.36;99924.94;5087040;28;20032;-29
2022/08/10 09:52:09;;;;;;;7.43;4.28;;;;;;;33.74;30.62;99914.94;5069218;28;20020;-29
2022/08/10 09:54:55;;;;;;;6.28;4.22;;;;;;;33.39;30.74;99926.38;5087314;28;20039;-30
2022/08/10 09:57:38;;;;;;;5.32;3.85;;;;;;;33.06;31.11;99927.94;5086552;28;20047;-34
2022/08/10 10:00:11;;;;;;;9.48;4.47;;;;;;;32.96;31.46;99923.06;5068612;28;20043;-32
2022/08/10 10:03:11;;;;;;;7.07;4.43;;;;;;;33.38;32.18;99922.03;5086836;28;20043;-30
2022/08/10 10:06:09;;;;;;;9.35;4.47;;;;;;;33.46;31.73;99912.63;5069022;28;20028;-31
2022/08/10 10:08:55;;;;;;;6.55;4.32;;;;;;;32.99;31.36;99905.72;5086655;28;20400;-32
2022/08/10 10:11:40;;;;;;;9.18;4.30;;;;;;;33.06;30.69;99914.13;5069215;28;20028;-36
2022/08/10 10:14:30;;;;;;;10.77;4.22;;;;;;;32.87;32.34;99915.03;5087157;28;20036;-29
2022/08/10 10:17:02;;;;;;;7.40;4.35;;;;;;;32.58;30.87;99908.31;5087454;28;20036;-35
2022/08/10 10:19:27;;;;;;;6.10;4.10;;;;;;;32.56;31.22;99911.44;5068645;28;20036;-28
2022/08/10 10:22:22;;;;;;;5.47;3.70;;;;;;;33.03;29.64;99899.06;5087173;28;20020;-33
2022/08/10 10:25:16;;;;;;;9.48;3.60;;;;;;;33.77;28.60;99911.41;5087023;28;20047;-28
2022/08/10 10:27:57;;;;;;;6.10;3.65;;;;;;;33.50;28.62;99910.72;5086477;28;20016;-29
2022/08/10 10:30:25;;;;;;;8.65;4.43;;;;;;;33.69;28.68;99904.22;5085244;28;20036;-28
2022/08/10 10:33:15;;;;;;;7.45;3.97;;;;;;;34.51;28.15;99904.16;5068481;28;20479;-29
2022/08/10 10:35:51;;;;;;;7.45;3.72;;;;;;;34.43;26.61;99905.28;5068358;28;20036;-32
2022/08/10 10:38:20;;;;;;;6.72;3.40;;;;;;;34.57;26.53;99899.03;5086707;28;20028;-33
2022/08/10 10:47:18;;;;;;;6.88;4.10;;;;;;;36.07;26.30;99890.47;5043644;28;21325;-30
2022/08/10 10:50:05;;;;;;;7.93;5.03;;;;;;;35.77;27.91;99876.97;5042616;28;20041;-29
2022/08/10 10:52:45;;;;;;;9.68;3.88;;;;;;;34.81;27.55;99881.78;5044248;28;20033;-35
2022/08/10 10:55:22;;;;;;;7.13;4.15;;;;;;;33.86;28.52;99864.09;5042253;28;20034;-29
2022/08/10 10:57:58;;;;;;;7.30;3.80;;;;;;;34.01;28.49;99873.28;5043822;28;20025;-34
2022/08/10 11:00:46;;;;;;;6.18;4.10;;;;;;;33.51;28.32;99850.69;5042267;28;20044;-30
2022/08/10 11:03:36;;;;;;;6.22;3.97;;;;;;;34.13;27.97;99869.44;5043365;28;20052;-29
2022/08/10 11:06:35;;;;;;;6.95;4.18;;;;;;;34.80;26.76;99866.34;5043426;28;20025;-30
2022/08/10 11:09:07;;;;;;;6.53;4.13;;;;;;;35.04;27.47;99841.91;5042349;28;20097;-30
2022/08/10 11:11:42;;;;;;;6.45;4.07;;;;;;;35.28;26.91;99867.34;5042085;28;20037;-33
2022/08/10 11:14:27;;;;;;;5.65;3.70;;;;;;;35.45;26.84;99863.84;5043957;28;20037;-35
2022/08/10 11:17:10;;;;;;;7.03;3.90;;;;;;;35.93;26.64;99868.28;5043386;28;20029;-33
2022/08/10 11:19:59;;;;;;;5.70;3.85;;;;;;;35.00;27.72;99871.56;5042126;28;20025;-30
2022/08/10 11:22:43;;;;;;;8.60;4.55;;;;;;;35.18;28.07;99869.69;5043307;28;20487;-29
2022/08/10 11:25:29;;;;;;;4.93;3.72;;;;;;;35.42;27.42;99878.47;5043308;28;20932;-30
2022/08/10 11:28:15;;;;;;;8.32;4.15;;;;;;;35.58;27.10;99862.25;5043333;28;20025;-30
2022/08/10 11:30:59;;;;;;;;;;;;;;;35.70;26.45;99891.63;5026286;28;20148;-29
2022/08/10 11:33:41;;;;;;;6.15;4.20;;;;;;;34.60;26.78;99889.97;5043521;28;19967;-29
2022/08/10 11:36:19;;;;;;;7.78;4.13;;;;;;;34.25;27.63;99877.47;5043010;28;20057;-29
2022/08/10 11:38:51;;;;;;;6.82;4.35;;;;;;;34.25;27.13;99877.47;5041255;28;20040;-31
2022/08/10 11:41:33;;;;;;;6.60;4.25;;;;;;;34.68;26.97;99888.84;5043277;28;20029;-28
2022/08/10 11:44:22;;;;;;;8.93;4.40;;;;;;;34.35;27.38;99882.28;5022869;28;20036;-30
2022/08/10 11:47:16;;;;;;;7.90;4.22;;;;;;;34.14;27.72;99882.94;5021609;28;20934;-34
2022/08/10 11:50:16;;;;;;;8.70;4.20;;;;;;;34.50;27.91;99879.63;5017250;28;20042;-29
2022/08/10 11:52:47;;;;;;;5.93;3.80;;;;;;;35.19;26.59;99871.28;5021351;28;20120;-29
2022/08/10 11:55:29;;;;;;;5.78;4.38;;;;;;;34.81;28.83;99873.47;5023129;28;20413;-30
2022/08/10 11:57:58;;;;;;;6.78;4.00;;;;;;;34.41;29.00;99872.44;5009478;28;20062;-33
2022/08/10 12:00:26;;;;;;;5.43;3.97;;;;;;;34.07;28.89;99876.50;5008113;28;20034;-32
2022/08/10 12:02:58;;;;;;;4.95;3.40;;;;;;;33.82;28.67;99868.78;5009453;28;20026;-29
2022/08/10 12:05:30;;;;;;;9.73;3.95;;;;;;;33.77;28.97;99872.69;5008196;28;20061;-29
2022/08/10 12:07:59;;;;;;;9.48;4.80;;;;;;;33.83;28.36;99853.78;5009456;28;20064;-31